createdAt,value
2019-03-30T00:00:38.237Z,35.20
2019-03-30T00:03:13.546Z,34.73
2019-03-30T00:05:48.830Z,33.93
2019-03-30T00:08:24.119Z,34.23
2019-03-30T00:10:59.399Z,33.40
2019-03-30T00:13:34.690Z,33.67
2019-03-30T00:16:10.104Z,33.97
2019-03-30T00:18:45.575Z,34.33
2019-03-30T00:21:20.868Z,34.90
2019-03-30T00:23:56.259Z,35.07
2019-03-30T00:26:31.625Z,35.20
2019-03-30T00:29:07.024Z,35.63
2019-03-30T00:31:42.451Z,34.17
2019-03-30T00:34:23.591Z,34.57
2019-03-30T00:36:58.991Z,33.57
2019-03-30T00:39:34.278Z,33.67
2019-03-30T00:42:09.606Z,33.97
2019-03-30T00:44:45.031Z,34.90
2019-03-30T00:47:20.379Z,33.73
2019-03-30T00:49:55.681Z,34.60
2019-03-30T00:52:30.955Z,35.20
2019-03-30T00:55:07.064Z,33.73
2019-03-30T00:57:42.355Z,35.73
2019-03-30T01:00:18.631Z,34.43
2019-03-30T01:02:53.995Z,35.33
2019-03-30T01:05:29.300Z,34.90
2019-03-30T01:08:04.719Z,34.70
2019-03-30T01:10:40.095Z,34.33
2019-03-30T01:13:15.383Z,34.90
2019-03-30T01:15:50.747Z,34.20
2019-03-30T01:18:26.055Z,33.67
2019-03-30T01:21:01.331Z,34.57
2019-03-30T01:23:36.851Z,34.33
2019-03-30T01:26:12.286Z,33.90
2019-03-30T01:28:47.577Z,34.30
2019-03-30T01:31:22.943Z,34.60
2019-03-30T01:33:58.215Z,34.03
2019-03-30T01:36:33.520Z,33.90
2019-03-30T01:39:09.294Z,34.17
2019-03-30T01:41:44.691Z,33.80
2019-03-30T01:44:19.979Z,33.80
2019-03-30T01:46:55.250Z,33.67
2019-03-30T01:49:31.511Z,34.43
2019-03-30T01:52:06.965Z,34.33
2019-03-30T01:54:42.335Z,33.97
2019-03-30T01:57:17.619Z,34.23
2019-03-30T01:59:52.915Z,33.80
2019-03-30T02:02:28.231Z,34.10
2019-03-30T02:05:03.764Z,34.67
2019-03-30T02:07:39.134Z,33.90
2019-03-30T02:10:43.660Z,34.13
2019-03-30T02:13:19.023Z,33.80
2019-03-30T02:15:54.379Z,33.60
2019-03-30T02:18:29.822Z,33.70
2019-03-30T02:21:05.098Z,33.77
2019-03-30T02:23:40.555Z,34.27
2019-03-30T02:26:15.917Z,34.33
2019-03-30T02:28:51.225Z,34.30
2019-03-30T02:31:26.494Z,34.67
2019-03-30T02:34:01.785Z,34.03
2019-03-30T02:36:38.029Z,34.37
2019-03-30T02:39:13.348Z,33.77
2019-03-30T02:41:48.704Z,33.77
2019-03-30T02:44:27.148Z,33.57
2019-03-30T02:47:02.565Z,34.00
2019-03-30T02:49:37.864Z,34.23
2019-03-30T02:52:13.141Z,34.03
2019-03-30T02:54:48.500Z,34.40
2019-03-30T02:57:23.782Z,33.47
2019-03-30T02:59:59.086Z,34.40
2019-03-30T03:02:34.498Z,33.90
2019-03-30T03:05:12.092Z,33.90
2019-03-30T03:07:47.347Z,34.10
2019-03-30T03:10:22.788Z,34.73
2019-03-30T03:12:58.701Z,33.53
2019-03-30T03:15:33.969Z,35.03
2019-03-30T03:18:09.213Z,34.40
2019-03-30T03:20:44.569Z,34.10
2019-03-30T03:23:19.826Z,34.13
2019-03-30T03:25:55.099Z,35.57
2019-03-30T03:28:30.362Z,35.67
2019-03-30T03:31:05.863Z,35.97
2019-03-30T03:33:41.271Z,34.60
2019-03-30T03:36:16.625Z,34.80
2019-03-30T03:38:52.957Z,34.47
2019-03-30T03:41:28.296Z,34.90
2019-03-30T03:44:04.623Z,34.13
2019-03-30T03:46:39.982Z,33.63
2019-03-30T03:49:15.357Z,34.70
2019-03-30T03:51:50.992Z,33.97
2019-03-30T03:54:27.221Z,35.00
2019-03-30T03:57:04.357Z,34.50
2019-03-30T03:59:42.745Z,33.87
2019-03-30T04:02:18.590Z,33.30
2019-03-30T04:04:55.335Z,33.77
2019-03-30T04:07:33.721Z,33.77
2019-03-30T04:10:09.268Z,33.87
2019-03-30T04:12:46.148Z,33.07
2019-03-30T04:15:32.887Z,34.67
2019-03-30T04:18:08.151Z,34.20
2019-03-30T04:20:43.416Z,34.07
2019-03-30T04:23:18.959Z,34.67
2019-03-30T04:25:54.332Z,33.77
2019-03-30T04:28:29.594Z,34.17
2019-03-30T04:31:04.932Z,34.77
2019-03-30T04:33:40.207Z,33.67
2019-03-30T04:36:15.488Z,33.93
2019-03-30T04:38:50.830Z,33.47
2019-03-30T04:41:26.091Z,33.77
2019-03-30T04:44:01.353Z,33.43
2019-03-30T04:46:36.626Z,34.10
2019-03-30T04:49:11.888Z,33.83
2019-03-30T04:51:57.475Z,34.03
2019-03-30T04:54:24.107Z,34.60
2019-03-30T04:56:59.435Z,34.13
2019-03-30T04:59:34.804Z,34.13
2019-03-30T05:02:10.108Z,34.93
2019-03-30T05:04:45.474Z,35.00
2019-03-30T05:07:20.722Z,33.17
2019-03-30T05:09:55.971Z,33.57
2019-03-30T05:12:32.383Z,33.23
2019-03-30T05:15:11.082Z,33.80
2019-03-30T05:17:48.051Z,33.87
2019-03-30T05:20:23.461Z,33.23
2019-03-30T05:22:58.743Z,33.70
2019-03-30T05:25:34.070Z,34.63
2019-03-30T05:28:09.422Z,34.33
2019-03-30T05:30:44.675Z,35.13
2019-03-30T05:33:19.944Z,35.50
2019-03-30T05:35:55.217Z,36.80
2019-03-30T05:38:30.649Z,35.87
2019-03-30T05:41:05.902Z,36.20
2019-03-30T05:43:41.180Z,36.50
2019-03-30T05:46:16.527Z,37.30
2019-03-30T05:48:52.868Z,35.40
2019-03-30T05:51:28.234Z,35.80
2019-03-30T05:54:03.607Z,35.73
2019-03-30T05:56:39.008Z,34.67
2019-03-30T05:59:14.242Z,33.47
2019-03-30T06:01:49.549Z,33.60
2019-03-30T06:04:24.890Z,32.90
2019-03-30T06:07:00.164Z,33.33
2019-03-30T06:09:35.424Z,32.47
2019-03-30T06:12:10.699Z,33.10
2019-03-30T06:14:47.998Z,33.93
2019-03-30T06:17:23.258Z,34.07
2019-03-30T06:19:58.532Z,33.67
2019-03-30T06:22:40.255Z,38.10
2019-03-30T06:25:10.977Z,35.80
2019-03-30T06:27:46.235Z,34.67
2019-03-30T06:30:23.754Z,33.77
2019-03-30T06:32:59.108Z,35.70
2019-03-30T06:35:34.373Z,37.43
2019-03-30T06:38:09.808Z,36.10
2019-03-30T06:40:46.235Z,37.07
2019-03-30T06:43:21.519Z,37.67
2019-03-30T06:45:56.836Z,36.40
2019-03-30T06:48:32.095Z,35.33
2019-03-30T06:51:07.363Z,36.27
2019-03-30T06:53:42.632Z,37.67
2019-03-30T06:56:18.917Z,40.70
2019-03-30T06:58:54.176Z,41.50
2019-03-30T07:01:29.879Z,38.67
2019-03-30T07:04:05.332Z,37.80
2019-03-30T07:06:40.959Z,41.53
2019-03-30T07:09:18.140Z,44.57
2019-03-30T07:11:56.504Z,42.77
2019-03-30T07:14:34.914Z,34.27
2019-03-30T07:17:12.463Z,36.17
2019-03-30T07:19:50.256Z,39.43
2019-03-30T07:22:25.667Z,37.80
2019-03-30T07:25:01.089Z,41.63
2019-03-30T07:27:36.432Z,40.97
2019-03-30T07:30:12.039Z,42.10
2019-03-30T07:32:47.304Z,37.23
2019-03-30T07:35:22.652Z,35.90
2019-03-30T07:37:57.959Z,36.10
2019-03-30T07:40:34.040Z,35.50
2019-03-30T07:43:09.568Z,36.60
2019-03-30T07:45:44.855Z,36.23
2019-03-30T07:48:21.203Z,38.87
2019-03-30T07:50:56.475Z,37.30
2019-03-30T07:53:43.982Z,38.73
2019-03-30T07:56:09.101Z,37.57
2019-03-30T07:58:44.440Z,35.97
2019-03-30T08:01:19.995Z,36.20
2019-03-30T08:03:55.289Z,35.07
2019-03-30T08:06:30.562Z,34.93
2019-03-30T08:09:07.615Z,34.20
2019-03-30T08:11:42.883Z,34.33
2019-03-30T08:14:18.364Z,33.97
2019-03-30T08:16:53.629Z,35.47
2019-03-30T08:19:28.902Z,34.47
2019-03-30T08:22:04.400Z,34.20
2019-03-30T08:24:40.832Z,34.80
2019-03-30T08:27:16.333Z,34.27
2019-03-30T08:29:51.632Z,34.67
2019-03-30T08:32:27.350Z,34.93
2019-03-30T08:35:02.794Z,34.30
2019-03-30T08:37:40.198Z,34.30
2019-03-30T08:40:15.747Z,34.50
2019-03-30T08:42:51.077Z,35.03
2019-03-30T08:45:26.423Z,35.13
2019-03-30T08:48:01.819Z,34.33
2019-03-30T08:50:37.293Z,35.37
2019-03-30T08:53:12.823Z,35.23
2019-03-30T08:55:48.277Z,34.80
2019-03-30T08:58:23.714Z,35.83
2019-03-30T09:00:58.997Z,34.83
2019-03-30T09:03:34.267Z,34.67
2019-03-30T09:06:09.628Z,34.53
2019-03-30T09:08:46.025Z,34.00
2019-03-30T09:11:21.404Z,35.43
2019-03-30T09:13:56.727Z,34.47
2019-03-30T09:16:32.070Z,34.47
2019-03-30T09:19:07.998Z,36.07
2019-03-30T09:21:43.342Z,35.10
2019-03-30T09:24:18.594Z,35.60
2019-03-30T09:26:54.876Z,35.20
2019-03-30T09:29:30.143Z,35.97
2019-03-30T09:32:14.171Z,35.67
2019-03-30T09:34:42.591Z,35.70
2019-03-30T09:37:17.948Z,35.27
2019-03-30T09:39:53.219Z,36.43
2019-03-30T09:42:29.390Z,36.67
2019-03-30T09:45:05.270Z,35.57
2019-03-30T09:47:40.587Z,36.67
2019-03-30T09:50:16.003Z,36.30
2019-03-30T09:52:53.472Z,36.97
2019-03-30T09:55:33.487Z,36.67
2019-03-30T09:58:08.903Z,37.13
2019-03-30T10:00:44.247Z,36.47
2019-03-30T10:03:19.504Z,36.70
2019-03-30T10:05:54.857Z,37.07
2019-03-30T10:08:30.167Z,35.87
2019-03-30T10:11:05.517Z,37.00
2019-03-30T10:13:40.820Z,37.20
2019-03-30T10:16:16.105Z,36.53
2019-03-30T10:18:51.515Z,36.03
2019-03-30T10:21:26.791Z,40.43
2019-03-30T10:24:02.064Z,38.10
2019-03-30T10:26:38.556Z,37.83
2019-03-30T10:29:13.837Z,37.53
2019-03-30T10:31:49.195Z,37.45
2019-03-30T10:34:24.457Z,37.27
2019-03-30T10:36:59.743Z,37.88
2019-03-30T10:39:35.263Z,37.80
2019-03-30T10:42:10.567Z,37.87
2019-03-30T10:44:45.841Z,38.07
2019-03-30T10:47:21.593Z,37.93
2019-03-30T10:49:56.898Z,37.60
2019-03-30T10:52:33.476Z,37.17
2019-03-30T10:55:08.967Z,37.48
2019-03-30T10:57:45.342Z,38.20
2019-03-30T11:00:36.029Z,37.28
2019-03-30T11:03:11.309Z,37.78
2019-03-30T11:05:46.723Z,37.98
2019-03-30T11:08:23.010Z,37.63
2019-03-30T11:10:58.447Z,37.40
2019-03-30T11:13:33.796Z,37.33
2019-03-30T11:16:09.148Z,36.75
2019-03-30T11:18:44.416Z,37.08
2019-03-30T11:21:19.722Z,37.45
2019-03-30T11:23:55.083Z,37.95
2019-03-30T11:26:30.431Z,36.80
2019-03-30T11:29:05.812Z,36.00
2019-03-30T11:31:41.187Z,37.78
2019-03-30T11:34:16.531Z,37.50
2019-03-30T11:36:51.897Z,36.90
2019-03-30T11:39:27.224Z,37.23
2019-03-30T11:42:02.504Z,36.80
2019-03-30T11:44:37.770Z,36.95
2019-03-30T11:47:13.052Z,37.48
2019-03-30T11:49:48.395Z,36.38
2019-03-30T11:52:23.716Z,37.73
2019-03-30T11:54:59.146Z,37.30
2019-03-30T11:57:34.620Z,37.85
2019-03-30T12:00:10.682Z,37.00
2019-03-30T12:02:46.255Z,37.00
2019-03-30T12:05:21.658Z,36.53
2019-03-30T12:07:57.202Z,37.03
2019-03-30T12:10:33.480Z,37.00
2019-03-30T12:13:08.770Z,37.13
2019-03-30T12:15:44.232Z,37.30
2019-03-30T12:18:19.503Z,37.10
2019-03-30T12:20:54.948Z,37.03
2019-03-30T12:23:30.240Z,37.28
2019-03-30T12:26:06.695Z,37.20
2019-03-30T12:28:42.107Z,36.80
2019-03-30T12:31:17.619Z,36.58
2019-03-30T12:33:54.025Z,37.03
2019-03-30T12:36:29.380Z,35.73
2019-03-30T12:39:08.139Z,36.20
2019-03-30T12:41:43.496Z,35.48
2019-03-30T12:44:18.804Z,35.00
2019-03-30T12:46:54.153Z,36.13
2019-03-30T12:49:29.498Z,36.00
2019-03-30T12:52:04.800Z,35.83
2019-03-30T12:54:40.135Z,36.58
2019-03-30T12:57:15.493Z,34.58
2019-03-30T12:59:50.907Z,34.73
2019-03-30T13:02:26.278Z,33.92
2019-03-30T13:05:01.615Z,33.38
2019-03-30T13:07:37.076Z,33.83
2019-03-30T13:10:12.928Z,33.17
2019-03-30T13:12:48.445Z,33.63
2019-03-30T13:15:23.792Z,33.77
2019-03-30T13:17:59.210Z,33.28
2019-03-30T13:20:35.519Z,33.83
2019-03-30T13:23:10.812Z,33.13
2019-03-30T13:25:46.077Z,33.53
2019-03-30T13:28:21.431Z,33.20
2019-03-30T13:30:56.727Z,33.75
2019-03-30T13:33:32.070Z,33.13
2019-03-30T13:36:10.782Z,33.10
2019-03-30T13:38:46.428Z,33.23
2019-03-30T13:41:21.736Z,32.78
2019-03-30T13:43:57.082Z,33.40
2019-03-30T13:46:32.488Z,33.98
2019-03-30T13:49:08.882Z,34.25
2019-03-30T13:51:44.242Z,34.95
2019-03-30T13:54:19.672Z,33.67
2019-03-30T13:56:56.969Z,33.83
2019-03-30T13:59:32.301Z,34.33
2019-03-30T14:02:07.708Z,34.08
2019-03-30T14:04:42.981Z,34.03
2019-03-30T14:07:18.262Z,33.50
2019-03-30T14:09:53.619Z,33.42
2019-03-30T14:12:28.923Z,33.00
2019-03-30T14:15:04.617Z,32.60
2019-03-30T14:17:41.015Z,32.88
2019-03-30T14:20:16.515Z,33.07
2019-03-30T14:22:51.804Z,33.40
2019-03-30T14:25:27.415Z,32.93
2019-03-30T14:28:02.783Z,32.78
2019-03-30T14:30:38.143Z,33.28
2019-03-30T14:33:15.538Z,33.67
2019-03-30T14:35:50.879Z,33.60
2019-03-30T14:38:27.259Z,33.13
2019-03-30T14:41:03.989Z,33.05
2019-03-30T14:43:39.461Z,32.93
2019-03-30T14:46:14.745Z,33.48
2019-03-30T14:48:50.019Z,33.65
2019-03-30T14:51:25.292Z,33.30
2019-03-30T14:54:00.760Z,33.30
2019-03-30T14:56:45.638Z,33.25
2019-03-30T14:59:14.531Z,33.70
2019-03-30T15:01:50.031Z,34.13
2019-03-30T15:04:25.495Z,35.85
2019-03-30T15:07:00.868Z,33.48
2019-03-30T15:09:36.273Z,33.45
2019-03-30T15:12:11.602Z,33.60
2019-03-30T15:14:46.955Z,33.02
2019-03-30T15:17:22.291Z,32.98
2019-03-30T15:19:58.846Z,34.63
2019-03-30T15:22:35.443Z,33.88
2019-03-30T15:25:11.343Z,32.73
2019-03-30T15:27:47.947Z,33.70
2019-03-30T15:30:23.359Z,34.87
2019-03-30T15:32:58.746Z,33.25
2019-03-30T15:35:33.991Z,33.70
2019-03-30T15:38:09.607Z,34.15
2019-03-30T15:40:45.228Z,33.67
2019-03-30T15:43:21.656Z,33.65
2019-03-30T15:45:56.927Z,34.18
2019-03-30T15:48:35.417Z,33.10
2019-03-30T15:51:11.799Z,33.50
2019-03-30T15:53:47.179Z,33.73
2019-03-30T15:56:22.539Z,33.67
2019-03-30T15:58:59.097Z,33.05
2019-03-30T16:01:34.548Z,33.80
2019-03-30T16:04:13.602Z,33.30
2019-03-30T16:06:49.080Z,33.05
2019-03-30T16:09:25.552Z,32.75
2019-03-30T16:12:00.911Z,32.75
2019-03-30T16:14:36.330Z,34.35
2019-03-30T16:17:14.687Z,33.02
2019-03-30T16:19:49.104Z,33.00
2019-03-30T16:22:25.603Z,33.25
2019-03-30T16:25:00.981Z,34.08
2019-03-30T16:27:39.227Z,33.15
2019-03-30T16:30:15.248Z,33.73
2019-03-30T16:32:50.901Z,33.48
2019-03-30T16:35:29.689Z,33.42
2019-03-30T16:38:08.072Z,33.45
2019-03-30T16:40:43.555Z,33.78
2019-03-30T16:43:19.031Z,32.80
2019-03-30T16:45:54.553Z,32.78
2019-03-30T16:48:30.037Z,32.78
2019-03-30T16:51:05.451Z,33.40
2019-03-30T16:53:40.859Z,33.18
2019-03-30T16:56:16.319Z,33.50
2019-03-30T16:58:51.826Z,33.10
2019-03-30T17:01:27.226Z,33.08
2019-03-30T17:04:03.579Z,32.93
2019-03-30T17:06:40.800Z,33.08
2019-03-30T17:09:16.187Z,32.78
2019-03-30T17:11:51.632Z,32.70
2019-03-30T17:14:27.091Z,32.50
2019-03-30T17:17:02.439Z,33.40
2019-03-30T17:19:37.904Z,33.45
2019-03-30T17:22:13.288Z,33.48
2019-03-30T17:24:48.580Z,32.90
2019-03-30T17:27:23.981Z,33.35
2019-03-30T17:30:02.284Z,33.23
2019-03-30T17:32:39.409Z,33.33
2019-03-30T17:35:19.924Z,32.83
2019-03-30T17:37:57.035Z,32.50
2019-03-30T17:40:32.829Z,32.08
2019-03-30T17:43:08.227Z,34.33
2019-03-30T17:45:43.671Z,34.10
2019-03-30T17:48:19.222Z,34.18
2019-03-30T17:50:58.373Z,33.25
2019-03-30T17:53:34.162Z,33.65
2019-03-30T17:56:10.321Z,34.18
2019-03-30T17:58:45.767Z,33.88
2019-03-30T18:01:21.425Z,33.30
2019-03-30T18:03:59.075Z,33.48
2019-03-30T18:06:34.418Z,33.58
2019-03-30T18:09:10.932Z,33.75
2019-03-30T18:11:46.305Z,34.88
2019-03-30T18:14:21.647Z,35.03
2019-03-30T18:16:57.042Z,36.13
2019-03-30T18:19:32.375Z,48.90
2019-03-30T18:22:07.908Z,45.45
2019-03-30T18:24:43.362Z,45.70
2019-03-30T18:27:18.817Z,41.37
2019-03-30T18:29:54.320Z,43.85
2019-03-30T18:32:29.976Z,36.88
2019-03-30T18:35:08.512Z,33.53
2019-03-30T18:37:44.139Z,33.28
2019-03-30T18:40:29.409Z,34.23
2019-03-30T18:43:04.934Z,35.33
2019-03-30T18:45:40.379Z,34.73
2019-03-30T18:48:17.331Z,34.13
2019-03-30T18:50:53.947Z,35.45
2019-03-30T18:53:32.904Z,35.48
2019-03-30T18:56:09.872Z,35.20
2019-03-30T18:58:45.300Z,35.98
2019-03-30T19:01:20.791Z,35.98
2019-03-30T19:03:56.217Z,35.75
2019-03-30T19:06:31.575Z,36.40
2019-03-30T19:09:09.032Z,35.63
2019-03-30T19:11:44.579Z,36.17
2019-03-30T19:14:20.027Z,34.70
2019-03-30T19:16:55.368Z,35.40
2019-03-30T19:19:31.660Z,35.38
2019-03-30T19:22:07.001Z,35.65
2019-03-30T19:24:42.438Z,36.00
2019-03-30T19:27:17.759Z,35.43
2019-03-30T19:29:53.062Z,36.13
2019-03-30T19:32:28.347Z,36.00
2019-03-30T19:35:04.801Z,35.73
2019-03-30T19:37:40.263Z,34.03
2019-03-30T19:40:15.808Z,34.63
2019-03-30T19:42:51.165Z,35.15
2019-03-30T19:45:26.443Z,37.25
2019-03-30T19:48:01.843Z,35.70
2019-03-30T19:50:37.207Z,36.38
2019-03-30T19:53:12.595Z,36.55
2019-03-30T19:55:47.887Z,35.45
2019-03-30T19:58:23.233Z,36.48
2019-03-30T20:00:58.829Z,35.70
2019-03-30T20:03:34.292Z,36.08
2019-03-30T20:06:09.753Z,35.17
2019-03-30T20:08:46.210Z,34.98
2019-03-30T20:11:21.710Z,34.55
2019-03-30T20:13:58.067Z,35.95
2019-03-30T20:16:33.404Z,34.70
2019-03-30T20:19:12.616Z,35.30
2019-03-30T20:21:45.858Z,37.48
2019-03-30T20:24:21.182Z,37.40
2019-03-30T20:26:56.527Z,36.65
2019-03-30T20:29:31.871Z,35.52
2019-03-30T20:32:07.241Z,37.17
2019-03-30T20:34:42.695Z,34.58
2019-03-30T20:37:18.147Z,33.88
2019-03-30T20:39:53.407Z,34.55
2019-03-30T20:42:29.691Z,32.90
2019-03-30T20:45:06.705Z,34.23
2019-03-30T20:47:42.158Z,33.30
2019-03-30T20:50:17.600Z,36.73
2019-03-30T20:52:53.028Z,37.20
2019-03-30T20:55:28.500Z,35.38
2019-03-30T20:58:04.081Z,35.20
2019-03-30T21:00:39.503Z,34.13
2019-03-30T21:03:14.953Z,33.45
2019-03-30T21:05:50.391Z,34.85
2019-03-30T21:08:25.846Z,33.20
2019-03-30T21:11:01.595Z,33.88
2019-03-30T21:13:36.883Z,32.58
2019-03-30T21:16:12.442Z,33.40
2019-03-30T21:18:47.735Z,33.10
2019-03-30T21:21:23.163Z,34.10
2019-03-30T21:23:59.545Z,33.67
2019-03-30T21:26:36.019Z,33.92
2019-03-30T21:29:11.544Z,33.13
2019-03-30T21:31:49.260Z,32.93
2019-03-30T21:34:23.984Z,33.33
2019-03-30T21:36:59.336Z,32.90
2019-03-30T21:39:35.699Z,31.90
2019-03-30T21:42:11.055Z,32.67
2019-03-30T21:44:46.395Z,32.47
2019-03-30T21:47:21.764Z,33.07
2019-03-30T21:49:57.028Z,31.77
2019-03-30T21:52:32.387Z,31.97
2019-03-30T21:55:08.880Z,32.20
2019-03-30T21:57:44.187Z,31.70
2019-03-30T22:00:34.563Z,31.37
2019-03-30T22:03:09.905Z,31.30
2019-03-30T22:05:45.330Z,31.40
2019-03-30T22:08:20.666Z,31.00
2019-03-30T22:10:55.940Z,31.33
2019-03-30T22:13:31.288Z,31.80
2019-03-30T22:16:06.563Z,31.70
2019-03-30T22:18:41.904Z,32.43
2019-03-30T22:21:17.167Z,34.60
2019-03-30T22:23:52.440Z,36.27
2019-03-30T22:26:27.719Z,34.95
2019-03-30T22:29:03.155Z,33.70
2019-03-30T22:31:38.440Z,32.80
2019-03-30T22:34:13.716Z,33.60
2019-03-30T22:36:48.999Z,31.90
2019-03-30T22:39:24.331Z,31.62
2019-03-30T22:41:59.658Z,31.40
2019-03-30T22:44:34.924Z,31.43
2019-03-30T22:47:10.196Z,30.80
2019-03-30T22:49:45.465Z,31.40
2019-03-30T22:52:20.740Z,31.25
2019-03-30T22:54:56.171Z,31.35
2019-03-30T22:57:31.463Z,31.45
2019-03-30T23:00:09.723Z,31.17
2019-03-30T23:02:46.791Z,31.70
2019-03-30T23:05:23.143Z,31.20
2019-03-30T23:07:58.412Z,30.80
2019-03-30T23:10:33.848Z,31.20
2019-03-30T23:13:09.178Z,31.97
2019-03-30T23:15:44.594Z,30.83
2019-03-30T23:18:20.007Z,31.20
2019-03-30T23:20:55.359Z,31.27
2019-03-30T23:23:30.718Z,31.37
2019-03-30T23:26:06.390Z,31.43
2019-03-30T23:28:41.708Z,31.93
2019-03-30T23:31:17.043Z,32.00
2019-03-30T23:33:52.458Z,31.77
2019-03-30T23:36:27.885Z,31.17
2019-03-30T23:39:05.092Z,31.47
2019-03-30T23:41:40.435Z,32.03
2019-03-30T23:44:15.719Z,31.70
2019-03-30T23:46:51.035Z,31.40
2019-03-30T23:49:26.315Z,31.90
2019-03-30T23:52:01.583Z,32.27
2019-03-30T23:54:36.875Z,32.60
2019-03-30T23:57:13.111Z,32.97
2019-03-30T23:59:48.371Z,32.60
